createdAt,value
2023-01-20T00:00:01.300Z,101040
2023-01-20T00:05:00.598Z,101040
2023-01-20T00:10:01.072Z,101050
2023-01-20T00:15:00.581Z,101060
2023-01-20T00:20:01.088Z,101060
2023-01-20T00:25:00.604Z,101060
2023-01-20T00:30:00.553Z,101060
2023-01-20T00:35:00.579Z,101060
2023-01-20T00:40:00.573Z,101060
2023-01-20T00:45:00.574Z,101070
2023-01-20T00:50:00.735Z,101070
2023-01-20T00:55:00.589Z,101070
2023-01-20T01:00:01.080Z,101070
2023-01-20T01:05:00.583Z,101070
2023-01-20T01:10:00.635Z,101080
2023-01-20T01:15:00.850Z,101080
2023-01-20T01:20:00.742Z,101080
2023-01-20T01:25:00.567Z,101090
2023-01-20T01:30:00.631Z,101100
2023-01-20T01:35:00.635Z,101100
2023-01-20T01:40:00.581Z,101100
2023-01-20T01:45:10.805Z,101100
2023-01-20T01:50:00.944Z,101110
2023-01-20T01:55:02.122Z,101100
2023-01-20T02:00:03.359Z,101110
2023-01-20T02:05:01.565Z,101120
2023-01-20T02:10:00.990Z,101120
2023-01-20T02:15:02.721Z,101120
2023-01-20T02:20:10.533Z,101120
2023-01-20T02:25:14.125Z,101120
2023-01-20T02:30:20.476Z,101120
2023-01-20T02:35:13.830Z,101120
2023-01-20T02:40:15.333Z,101120
2023-01-20T02:45:11.360Z,101130
2023-01-20T02:50:12.938Z,101120
2023-01-20T02:55:05.391Z,101120
2023-01-20T03:00:11.429Z,101130
2023-01-20T03:05:06.174Z,101120
2023-01-20T03:10:05.408Z,101120
2023-01-20T03:15:01.294Z,101120
2023-01-20T03:20:00.935Z,101130
2023-01-20T03:25:02.072Z,101140
2023-01-20T03:30:00.755Z,101150
2023-01-20T03:35:00.591Z,101150
2023-01-20T03:40:00.763Z,101160
2023-01-20T03:45:16.209Z,101160
2023-01-20T03:50:14.962Z,101160
2023-01-20T03:55:14.536Z,101170
2023-01-20T04:00:04.167Z,101170
2023-01-20T04:05:02.769Z,101170
2023-01-20T04:10:10.143Z,101170
2023-01-20T04:15:00.960Z,101170
2023-01-20T04:20:06.132Z,101170
2023-01-20T04:25:12.880Z,101170
2023-01-20T04:30:00.570Z,101180
2023-01-20T04:35:00.626Z,101180
2023-01-20T04:40:00.620Z,101180
2023-01-20T04:45:00.634Z,101180
2023-01-20T04:50:00.648Z,101190
2023-01-20T04:55:00.760Z,101190
2023-01-20T05:00:01.375Z,101190
2023-01-20T05:05:00.558Z,101190
2023-01-20T05:10:00.643Z,101190
2023-01-20T05:15:00.621Z,101190
2023-01-20T05:20:00.589Z,101190
2023-01-20T05:25:00.592Z,101190
2023-01-20T05:30:00.580Z,101190
2023-01-20T05:35:00.576Z,101190
2023-01-20T05:40:00.637Z,101190
2023-01-20T05:45:00.648Z,101190
2023-01-20T05:50:00.594Z,101190
2023-01-20T05:55:00.571Z,101210
2023-01-20T06:00:01.368Z,101220
2023-01-20T06:05:00.629Z,101210
2023-01-20T06:10:00.800Z,101210
2023-01-20T06:15:00.861Z,101200
2023-01-20T06:20:00.859Z,101210
2023-01-20T06:25:00.553Z,101210
2023-01-20T06:30:00.599Z,101220
2023-01-20T06:35:00.611Z,101220
2023-01-20T06:40:00.566Z,101220
2023-01-20T06:45:00.611Z,101230
2023-01-20T06:50:00.633Z,101220
2023-01-20T06:55:00.554Z,101240
2023-01-20T07:00:01.395Z,101240
2023-01-20T07:05:00.717Z,101240
2023-01-20T07:10:02.274Z,101250
2023-01-20T07:15:00.590Z,101250
2023-01-20T07:20:00.566Z,101260
2023-01-20T07:25:00.579Z,101260
2023-01-20T07:30:00.605Z,101260
2023-01-20T07:35:00.542Z,101270
2023-01-20T07:40:00.626Z,101260
2023-01-20T07:45:00.583Z,101270
2023-01-20T07:50:00.620Z,101270
2023-01-20T07:55:00.581Z,101270
2023-01-20T08:00:01.383Z,101270
2023-01-20T08:05:00.688Z,101280
2023-01-20T08:10:00.646Z,101280
2023-01-20T08:15:00.573Z,101280
2023-01-20T08:20:00.642Z,101290
2023-01-20T08:25:00.580Z,101290
2023-01-20T08:30:00.662Z,101290
2023-01-20T08:35:00.604Z,101300
2023-01-20T08:40:00.622Z,101310
2023-01-20T08:45:00.645Z,101310
2023-01-20T08:50:00.690Z,101300
2023-01-20T08:55:00.931Z,101310
2023-01-20T09:00:01.491Z,101310
2023-01-20T09:05:00.686Z,101310
2023-01-20T09:10:00.877Z,101320
2023-01-20T09:15:01.277Z,101320
2023-01-20T09:20:00.640Z,101320
2023-01-20T09:25:00.571Z,101330
2023-01-20T09:30:01.334Z,101340
2023-01-20T09:35:00.668Z,101340
2023-01-20T09:40:00.635Z,101340
2023-01-20T09:45:12.504Z,101350
2023-01-20T09:50:14.233Z,101340
2023-01-20T09:55:09.025Z,101350
2023-01-20T10:00:14.870Z,101350
2023-01-20T10:05:09.931Z,101350
2023-01-20T10:10:15.294Z,101360
2023-01-20T10:15:09.217Z,101360
2023-01-20T10:20:06.406Z,101360
2023-01-20T10:25:08.360Z,101370
2023-01-20T10:30:10.189Z,101380
2023-01-20T10:35:09.159Z,101390
2023-01-20T10:40:13.812Z,101390
2023-01-20T10:45:00.752Z,101390
2023-01-20T10:50:00.574Z,101390
2023-01-20T10:55:17.456Z,101390
2023-01-20T11:00:05.871Z,101390
2023-01-20T11:05:15.269Z,101390
2023-01-20T11:10:14.299Z,101390
2023-01-20T11:15:00.953Z,101390
2023-01-20T11:20:04.986Z,101400
2023-01-20T11:25:03.299Z,101390
2023-01-20T11:30:05.558Z,101400
2023-01-20T11:35:12.034Z,101400
2023-01-20T11:40:12.871Z,101400
2023-01-20T11:45:20.873Z,101400
2023-01-20T11:50:03.817Z,101390
2023-01-20T11:55:11.771Z,101380
2023-01-20T12:00:01.986Z,101380
2023-01-20T12:05:03.824Z,101370
2023-01-20T12:10:12.162Z,101380
2023-01-20T12:15:04.586Z,101370
2023-01-20T12:20:07.874Z,101370
2023-01-20T12:25:20.120Z,101370
2023-01-20T12:30:09.812Z,101370
2023-01-20T12:35:00.751Z,101370
2023-01-20T12:40:14.268Z,101370
2023-01-20T12:45:20.474Z,101390
2023-01-20T12:50:15.330Z,101390
2023-01-20T12:55:14.586Z,101400
2023-01-20T13:00:20.479Z,101400
2023-01-20T13:05:16.045Z,101400
2023-01-20T13:10:11.553Z,101400
2023-01-20T13:15:12.928Z,101400
2023-01-20T13:20:03.077Z,101410
2023-01-20T13:25:00.918Z,101410
2023-01-20T13:30:03.894Z,101420
2023-01-20T13:35:18.821Z,101420
2023-01-20T13:40:01.349Z,101420
2023-01-20T13:45:11.329Z,101430
2023-01-20T13:50:20.479Z,101440
2023-01-20T13:55:00.580Z,101430
2023-01-20T14:00:01.958Z,101440
2023-01-20T14:05:00.593Z,101450
2023-01-20T14:10:00.941Z,101460
2023-01-20T14:15:00.667Z,101470
2023-01-20T14:20:00.611Z,101470
2023-01-20T14:25:00.783Z,101490
2023-01-20T14:30:13.226Z,101490
2023-01-20T14:35:03.054Z,101500
2023-01-20T14:40:07.274Z,101520
2023-01-20T14:45:00.605Z,101530
2023-01-20T14:50:01.188Z,101530
2023-01-20T14:55:00.600Z,101540
2023-01-20T15:00:18.384Z,101550
2023-01-20T15:05:01.196Z,101570
2023-01-20T15:10:06.496Z,101580
2023-01-20T15:15:10.747Z,101590
2023-01-20T15:20:00.575Z,101600
2023-01-20T15:25:10.863Z,101610
2023-01-20T15:30:13.014Z,101620
2023-01-20T15:35:00.563Z,101640
2023-01-20T15:40:00.637Z,101650
2023-01-20T15:45:00.562Z,101650
2023-01-20T15:50:00.577Z,101660
2023-01-20T15:55:00.559Z,101680
2023-01-20T16:00:02.462Z,101690
2023-01-20T16:05:00.577Z,101710
2023-01-20T16:10:01.699Z,101710
2023-01-20T16:15:00.564Z,101730
2023-01-20T16:20:00.558Z,101740
2023-01-20T16:25:00.576Z,101750
2023-01-20T16:30:00.553Z,101770
2023-01-20T16:35:00.574Z,101780
2023-01-20T16:40:00.626Z,101790
2023-01-20T16:45:00.559Z,101800
2023-01-20T16:50:00.678Z,101800
2023-01-20T16:55:00.549Z,101810
2023-01-20T17:00:01.473Z,101830
2023-01-20T17:05:00.574Z,101840
2023-01-20T17:10:00.688Z,101840
2023-01-20T17:15:00.582Z,101860
2023-01-20T17:20:00.599Z,101860
2023-01-20T17:25:00.558Z,101880
2023-01-20T17:30:00.574Z,101880
2023-01-20T17:35:00.843Z,101900
2023-01-20T17:40:00.609Z,101910
2023-01-20T17:45:00.611Z,101930
2023-01-20T17:50:00.644Z,101940
2023-01-20T17:55:00.570Z,101950
2023-01-20T18:00:02.978Z,101970
2023-01-20T18:05:00.638Z,101970
2023-01-20T18:10:00.599Z,101990
2023-01-20T18:15:00.556Z,102010
2023-01-20T18:20:00.625Z,102020
2023-01-20T18:25:00.686Z,102020
2023-01-20T18:30:00.576Z,102040
2023-01-20T18:35:00.612Z,102050
2023-01-20T18:40:00.661Z,102060
2023-01-20T18:45:01.615Z,102070
2023-01-20T18:50:00.579Z,102080
2023-01-20T18:55:00.563Z,102100
2023-01-20T19:00:01.300Z,102110
2023-01-20T19:05:00.578Z,102110
2023-01-20T19:10:00.557Z,102120
2023-01-20T19:15:00.573Z,102130
2023-01-20T19:20:01.029Z,102150
2023-01-20T19:25:00.608Z,102160
2023-01-20T19:30:00.619Z,102170
2023-01-20T19:35:00.582Z,102180
2023-01-20T19:40:00.566Z,102190
2023-01-20T19:45:00.595Z,102200
2023-01-20T19:50:00.759Z,102210
2023-01-20T19:55:00.575Z,102220
2023-01-20T20:00:01.428Z,102220
2023-01-20T20:05:00.597Z,102230
2023-01-20T20:10:00.566Z,102240
2023-01-20T20:15:00.579Z,102250
2023-01-20T20:20:00.573Z,102260
2023-01-20T20:25:00.651Z,102270
2023-01-20T20:30:00.554Z,102270
2023-01-20T20:35:00.575Z,102280
2023-01-20T20:40:00.555Z,102290
2023-01-20T20:45:00.613Z,102310
2023-01-20T20:50:00.561Z,102310
2023-01-20T20:55:00.571Z,102340
2023-01-20T21:00:01.100Z,102340
2023-01-20T21:05:00.599Z,102350
2023-01-20T21:10:00.592Z,102360
2023-01-20T21:15:00.564Z,102370
2023-01-20T21:20:00.674Z,102380
2023-01-20T21:25:00.633Z,102390
2023-01-20T21:30:00.561Z,102400
2023-01-20T21:35:00.598Z,102410
2023-01-20T21:40:00.583Z,102410
2023-01-20T21:45:00.601Z,102420
2023-01-20T21:50:00.592Z,102420
2023-01-20T21:55:01.747Z,102430
2023-01-20T22:00:04.289Z,102430
2023-01-20T22:05:00.645Z,102450
2023-01-20T22:10:00.575Z,102450
2023-01-20T22:15:01.637Z,102460
2023-01-20T22:20:00.578Z,102460
2023-01-20T22:25:00.565Z,102460
2023-01-20T22:30:00.569Z,102480
2023-01-20T22:35:00.568Z,102490
2023-01-20T22:40:00.561Z,102500
2023-01-20T22:45:00.558Z,102510
2023-01-20T22:50:00.580Z,102520
2023-01-20T22:55:00.569Z,102530
2023-01-20T23:00:01.286Z,102550
2023-01-20T23:05:00.561Z,102560
2023-01-20T23:10:00.549Z,102560
2023-01-20T23:15:00.629Z,102580
2023-01-20T23:20:00.626Z,102570
2023-01-20T23:25:00.584Z,102570
2023-01-20T23:30:00.619Z,102580
2023-01-20T23:35:00.611Z,102590
2023-01-20T23:40:00.573Z,102600
2023-01-20T23:45:00.610Z,102610
2023-01-20T23:50:00.795Z,102610
2023-01-20T23:55:00.566Z,102630
